Time;durP1;ratioP1;P1;durP2;ratioP2;P2;SDS_P1;SDS_P2;PMS_P1;PMS_P2;Temp;Humidity;BMP_temperature;BMP_pressure;BME280_temperature;BME280_humidity;BME280_pressure;Samples;Min_cycle;Max_cycle;Signal;HPM_P1;HPM_P2
2024/01/03 15:11:58;;;;;;;1.08;0.68;;;11.50;82.70;;;;;;7574747;19;20897;-75
2024/01/03 15:14:33;;;;;;;0.50;0.50;;;11.40;83.20;;;;;;7601432;19;20557;-74
2024/01/03 15:17:05;;;;;;;1.80;0.68;;;11.40;83.10;;;;;;7597987;19;20017;-74
2024/01/03 15:19:38;;;;;;;1.88;0.80;;;11.50;82.40;;;;;;7600635;19;20016;-74
2024/01/03 15:22:15;;;;;;;1.90;0.80;;;11.50;82.00;;;;;;7604800;19;20129;-74
2024/01/03 15:24:49;;;;;;;1.23;0.68;;;11.60;82.00;;;;;;7578575;19;20161;-74
2024/01/03 15:27:21;;;;;;;5.93;0.88;;;11.50;82.10;;;;;;7583754;19;20450;-74
2024/01/03 15:29:53;;;;;;;1.55;0.70;;;11.50;82.20;;;;;;7605498;19;20982;-75
2024/01/03 15:32:25;;;;;;;2.50;1.30;;;11.60;81.80;;;;;;7583636;19;20674;-76
2024/01/03 15:34:58;;;;;;;3.63;1.10;;;11.40;82.30;;;;;;7596821;19;20221;-75
2024/01/03 15:37:31;;;;;;;1.30;0.75;;;11.50;82.30;;;;;;7593440;19;20332;-74
2024/01/03 15:40:05;;;;;;;4.95;0.90;;;11.40;82.50;;;;;;7601233;19;20029;-74
2024/01/03 15:42:38;;;;;;;;;;;11.40;82.90;;;;;;7600528;19;20481;-75
2024/01/03 15:45:12;;;;;;;1.60;1.00;;;11.30;83.50;;;;;;7591391;19;20270;-74
2024/01/03 15:47:45;;;;;;;2.85;1.17;;;11.20;83.00;;;;;;7606036;19;20018;-74
2024/01/03 15:50:18;;;;;;;2.73;1.00;;;11.20;82.80;;;;;;7580840;19;20033;-75
2024/01/03 15:52:51;;;;;;;3.40;1.10;;;11.10;83.40;;;;;;7592875;19;20885;-75
2024/01/03 15:55:23;;;;;;;2.38;1.25;;;11.00;84.30;;;;;;7598443;19;20427;-75
2024/01/03 15:57:55;;;;;;;6.10;1.77;;;10.90;84.70;;;;;;7609083;19;20018;-75
2024/01/03 16:00:27;;;;;;;2.28;1.73;;;10.80;84.80;;;;;;7591387;19;20044;-75
2024/01/03 16:03:00;;;;;;;1.85;1.10;;;10.80;85.10;;;;;;7593238;19;20014;-74
2024/01/03 16:05:33;;;;;;;1.40;0.80;;;10.70;85.30;;;;;;7603510;19;20094;-75
2024/01/03 16:08:06;;;;;;;1.48;0.88;;;10.70;85.40;;;;;;7595592;19;20010;-75
2024/01/03 16:10:39;;;;;;;3.80;0.82;;;10.80;85.10;;;;;;7600148;19;20818;-75
2024/01/03 16:13:11;;;;;;;3.93;0.83;;;10.80;85.10;;;;;;7597599;19;20059;-75
2024/01/03 16:15:43;;;;;;;4.28;1.10;;;10.80;85.30;;;;;;7591488;19;20383;-75
2024/01/03 16:18:16;;;;;;;3.13;1.20;;;10.70;85.60;;;;;;7584522;19;20509;-75
2024/01/03 16:20:48;;;;;;;4.18;1.60;;;10.70;85.70;;;;;;7610768;19;21028;-75
2024/01/03 16:23:21;;;;;;;6.28;1.80;;;10.60;85.90;;;;;;7531835;19;20281;-75
2024/01/03 16:25:53;;;;;;;6.47;1.70;;;10.60;85.30;;;;;;7560187;19;20429;-74
2024/01/03 16:28:27;;;;;;;3.87;1.57;;;10.60;85.80;;;;;;7563792;19;20577;-75
2024/01/03 16:30:59;;;;;;;;;;;10.60;85.10;;;;;;7566927;19;20649;-74
2024/01/03 16:33:32;;;;;;;6.20;1.13;;;10.60;85.20;;;;;;7553927;19;21427;-74
2024/01/03 16:36:05;;;;;;;13.20;5.73;;;10.60;86.20;;;;;;7556874;19;20025;-75
2024/01/03 16:38:37;;;;;;;4.37;1.73;;;10.50;85.90;;;;;;7559354;19;20064;-75
2024/01/03 16:41:14;;;;;;;6.45;1.95;;;10.50;85.50;;;;;;7553723;19;20014;-74
2024/01/03 16:43:46;;;;;;;4.65;1.55;;;10.60;86.10;;;;;;7565089;19;20550;-75
2024/01/03 16:46:18;;;;;;;2.03;1.13;;;10.50;86.70;;;;;;7559508;19;20650;-75
2024/01/03 16:48:51;;;;;;;2.20;1.40;;;10.40;86.10;;;;;;7558076;19;20017;-75
2024/01/03 16:51:24;;;;;;;2.03;1.08;;;10.30;86.80;;;;;;7534737;19;20122;-74
2024/01/03 16:53:56;;;;;;;2.90;1.23;;;10.30;89.00;;;;;;7544680;19;20351;-75
2024/01/03 16:56:29;;;;;;;4.78;1.50;;;10.30;86.20;;;;;;7555247;19;20736;-75
2024/01/03 16:59:02;;;;;;;3.38;1.30;;;10.30;86.40;;;;;;7567392;19;20048;-75
2024/01/03 17:01:34;;;;;;;4.28;1.77;;;10.20;87.00;;;;;;7558493;19;20026;-74
2024/01/03 17:04:06;;;;;;;1.60;1.13;;;10.20;86.70;;;;;;7547579;19;20907;-74
2024/01/03 17:06:42;;;;;;;4.63;1.48;;;10.20;86.80;;;;;;7562445;19;20025;-74
2024/01/03 17:09:15;;;;;;;3.08;1.20;;;10.20;85.90;;;;;;7564097;19;20767;-75
2024/01/03 17:11:48;;;;;;;4.05;1.25;;;10.20;86.80;;;;;;7543917;19;20393;-74
2024/01/03 17:14:21;;;;;;;2.22;1.13;;;10.10;87.00;;;;;;7542153;19;20018;-74
2024/01/03 17:16:53;;;;;;;2.33;1.15;;;10.20;87.10;;;;;;7561591;19;20007;-74
2024/01/03 17:19:28;;;;;;;5.15;1.02;;;10.20;87.50;;;;;;7558022;19;20507;-74
2024/01/03 17:22:00;;;;;;;2.15;0.95;;;10.30;87.30;;;;;;7571632;19;20023;-76
2024/01/03 17:24:33;;;;;;;2.67;1.10;;;10.50;86.80;;;;;;7556093;19;20641;-74
2024/01/03 17:27:05;;;;;;;1.30;0.90;;;10.60;86.80;;;;;;7554859;19;22138;-76
2024/01/03 17:29:37;;;;;;;2.38;0.88;;;10.50;87.70;;;;;;7547616;19;20059;-76
2024/01/03 17:32:10;;;;;;;6.05;0.90;;;10.40;87.90;;;;;;7545691;19;20021;-74
2024/01/03 17:34:43;;;;;;;2.80;0.77;;;10.50;87.80;;;;;;7568418;19;20413;-75
2024/01/03 17:37:16;;;;;;;1.40;0.82;;;10.60;87.70;;;;;;7581294;19;20590;-73
2024/01/03 17:39:48;;;;;;;2.30;1.10;;;10.50;88.10;;;;;;7566381;19;20018;-76
2024/01/03 17:42:20;;;;;;;2.58;1.00;;;10.50;88.00;;;;;;7572537;19;20114;-75
2024/01/03 17:44:53;;;;;;;1.45;0.82;;;10.50;88.30;;;;;;7548512;19;20543;-76
2024/01/03 17:47:25;;;;;;;3.20;1.00;;;10.50;88.50;;;;;;7549958;19;20011;-75
2024/01/03 17:49:58;;;;;;;5.88;1.40;;;10.50;88.40;;;;;;7558128;19;20600;-73
2024/01/03 17:52:30;;;;;;;2.55;1.55;;;10.50;88.60;;;;;;7533158;19;20025;-75
2024/01/03 17:55:03;;;;;;;3.45;1.63;;;10.40;89.20;;;;;;7538732;19;20026;-73
2024/01/03 17:57:35;;;;;;;4.37;1.17;;;10.30;89.80;;;;;;7503899;19;20908;-73
2024/01/03 18:00:08;;;;;;;3.00;1.40;;;10.30;90.20;;;;;;7512139;19;20116;-74
2024/01/03 18:02:41;;;;;;;2.97;1.00;;;10.20;90.20;;;;;;7514138;19;20015;-73
2024/01/03 18:05:13;;;;;;;2.15;1.40;;;10.20;90.50;;;;;;7529585;19;20029;-73
2024/01/03 18:07:48;;;;;;;3.88;1.85;;;10.20;90.60;;;;;;7533413;19;20550;-74
2024/01/03 18:10:21;;;;;;;5.65;1.92;;;10.00;90.70;;;;;;7538963;19;20748;-74
2024/01/03 18:12:53;;;;;;;2.85;1.23;;;10.10;90.60;;;;;;7532375;19;20010;-73
2024/01/03 18:15:25;;;;;;;2.00;0.98;;;10.10;90.70;;;;;;7543785;19;20130;-76
2024/01/03 18:17:57;;;;;;;4.03;1.10;;;10.20;90.70;;;;;;7544919;19;21444;-74
2024/01/03 18:20:30;;;;;;;3.20;1.63;;;10.30;90.40;;;;;;7532580;19;20885;-74
2024/01/03 18:23:03;;;;;;;2.83;1.35;;;10.20;90.90;;;;;;7523831;19;20446;-74
2024/01/03 18:25:36;;;;;;;3.67;1.30;;;10.20;90.80;;;;;;7551246;19;20377;-74
2024/01/03 18:28:08;;;;;;;2.60;1.60;;;10.20;90.80;;;;;;7553191;19;20722;-73
2024/01/03 18:30:42;;;;;;;2.80;1.52;;;10.20;90.90;;;;;;7550777;19;20044;-76
2024/01/03 18:33:17;;;;;;;2.88;1.23;;;10.20;90.90;;;;;;7552080;19;20099;-73
2024/01/03 18:35:49;;;;;;;4.53;2.08;;;10.30;90.90;;;;;;7546969;19;21704;-74
2024/01/03 18:38:22;;;;;;;3.25;1.38;;;10.20;91.10;;;;;;7563352;19;20022;-76
2024/01/03 18:40:54;;;;;;;2.30;1.00;;;10.30;91.40;;;;;;7540811;19;20321;-76
2024/01/03 18:43:27;;;;;;;1.95;1.00;;;10.40;91.00;;;;;;7548433;19;20104;-75
2024/01/03 18:45:59;;;;;;;2.42;1.20;;;10.50;90.90;;;;;;7531649;19;21154;-74
2024/01/03 18:48:32;;;;;;;4.25;1.52;;;10.40;91.00;;;;;;7524928;19;20020;-74
2024/01/03 18:51:04;;;;;;;9.77;2.67;;;10.40;91.00;;;;;;7542349;19;20650;-77
2024/01/03 18:53:37;;;;;;;2.47;1.97;;;10.40;91.10;;;;;;7521978;19;20263;-74
2024/01/03 18:56:10;;;;;;;2.65;1.23;;;10.30;91.10;;;;;;7549681;19;20920;-75
2024/01/03 18:58:46;;;;;;;2.63;1.52;;;10.40;90.70;;;;;;7541073;19;20010;-74
2024/01/03 19:01:19;;;;;;;4.63;2.15;;;10.40;90.70;;;;;;7542333;19;20544;-74
2024/01/03 19:03:51;;;;;;;;;;;10.40;90.50;;;;;;6527353;19;10000671;-75
2024/01/03 19:06:24;;;;;;;8.30;2.92;;;10.50;90.30;;;;;;7524426;19;19919;-75
2024/01/03 19:08:57;;;;;;;9.48;3.65;;;10.50;90.30;;;;;;7551332;19;20536;-73
2024/01/03 19:11:30;;;;;;;10.02;3.55;;;10.60;90.00;;;;;;7518222;19;20044;-75
2024/01/03 19:14:04;;;;;;;;;;;10.60;89.60;;;;;;7534277;19;20057;-74
2024/01/03 19:16:36;;;;;;;12.23;6.03;;;10.60;89.70;;;;;;7534261;19;20434;-77
2024/01/03 19:19:09;;;;;;;9.77;4.37;;;10.60;90.00;;;;;;7533620;19;20513;-74
2024/01/03 19:21:41;;;;;;;9.80;3.67;;;10.50;89.40;;;;;;7533503;19;20026;-75
2024/01/03 19:24:14;;;;;;;19.40;7.90;;;10.60;89.10;;;;;;7525174;19;20006;-73
2024/01/03 19:26:48;;;;;;;9.15;3.13;;;10.60;88.80;;;;;;7496338;19;20422;-73
2024/01/03 19:29:21;;;;;;;4.77;2.83;;;10.70;87.60;;;;;;7529738;19;20022;-73
2024/01/03 19:31:53;;;;;;;2.47;1.23;;;10.70;87.30;;;;;;7539551;19;20026;-76
2024/01/03 19:34:28;;;;;;;2.72;1.33;;;10.80;85.90;;;;;;7511474;19;20586;-76
2024/01/03 19:37:01;;;;;;;2.75;1.83;;;10.90;85.20;;;;;;7533006;19;21642;-75
2024/01/03 19:39:34;;;;;;;1.80;1.00;;;11.00;85.00;;;;;;7529954;19;20018;-75
2024/01/03 19:42:06;;;;;;;5.93;1.38;;;10.90;84.40;;;;;;7523675;19;20030;-76
2024/01/03 19:44:39;;;;;;;4.00;2.15;;;11.10;83.10;;;;;;7553908;19;20792;-75
2024/01/03 19:47:11;;;;;;;3.72;1.30;;;11.00;82.30;;;;;;7548785;19;20011;-74
2024/01/03 19:49:43;;;;;;;1.73;0.95;;;11.10;82.40;;;;;;7491803;19;20959;-74
2024/01/03 19:52:18;;;;;;;2.88;1.35;;;11.10;82.40;;;;;;7520525;19;20496;-74
2024/01/03 19:54:50;;;;;;;10.60;1.05;;;11.20;82.20;;;;;;7513017;19;20021;-75
2024/01/03 19:57:22;;;;;;;1.13;0.50;;;11.30;80.00;;;;;;7556599;19;20010;-74
2024/01/03 19:59:55;;;;;;;1.65;0.80;;;11.50;80.40;;;;;;7515133;19;20086;-75
2024/01/03 20:02:28;;;;;;;5.45;0.50;;;11.40;86.00;;;;;;7551660;19;20618;-75
2024/01/03 20:05:01;;;;;;;0.80;0.73;;;11.20;87.20;;;;;;7528547;19;20484;-76
2024/01/03 20:07:34;;;;;;;2.00;0.63;;;11.00;88.60;;;;;;7518439;19;21000;-74
2024/01/03 20:10:08;;;;;;;3.05;0.70;;;10.70;90.20;;;;;;7482913;19;20388;-75
2024/01/03 20:12:40;;;;;;;;;;;10.60;90.90;;;;;;7547039;19;21037;-75
2024/01/03 20:15:13;;;;;;;1.52;0.57;;;10.40;91.60;;;;;;7559921;19;19956;-76
2024/01/03 20:17:45;;;;;;;0.70;0.50;;;10.20;93.30;;;;;;7566908;19;20019;-75
2024/01/03 20:20:23;;;;;;;1.73;0.67;;;10.00;95.40;;;;;;7584113;19;20017;-75
2024/01/03 20:22:59;;;;;;;1.08;0.60;;;9.60;96.70;;;;;;7561640;19;20412;-75
2024/01/03 20:25:32;;;;;;;1.30;0.80;;;9.50;97.60;;;;;;7574890;19;20029;-76
2024/01/03 20:28:04;;;;;;;1.13;0.65;;;9.40;98.00;;;;;;7562927;19;20282;-75
2024/01/03 20:30:37;;;;;;;0.80;0.55;;;9.30;98.90;;;;;;7567937;19;20484;-75
2024/01/03 20:33:10;;;;;;;0.40;0.40;;;9.40;98.00;;;;;;7556378;19;20018;-76
2024/01/03 20:35:42;;;;;;;0.90;0.50;;;9.30;98.00;;;;;;7555105;19;20123;-75
2024/01/03 20:38:14;;;;;;;0.95;0.60;;;9.30;98.50;;;;;;7519085;19;20806;-75
2024/01/03 20:40:47;;;;;;;0.80;0.70;;;9.20;98.90;;;;;;7556875;19;20455;-76
2024/01/03 20:43:20;;;;;;;0.75;0.55;;;9.20;99.40;;;;;;7545314;19;20015;-75
2024/01/03 20:45:53;;;;;;;1.48;0.70;;;9.10;99.70;;;;;;7557299;19;20469;-75
2024/01/03 20:48:25;;;;;;;0.88;0.47;;;9.00;99.90;;;;;;7569279;19;20025;-77
2024/01/03 20:50:57;;;;;;;1.10;0.50;;;9.10;99.90;;;;;;7526717;19;20018;-76
